NCAR-RAP Real-Time Weather Data

Output produced by METARs form (26 May 2022  09:04 UTC)
found at http://weather.rap.ucar.edu/surface/
 
RPLL 260700Z 26008KT 9999 FEW023CB SCT025 BKN100 31/25 Q1006 NOSIG RMK A2971 CB SW
RPLL 260600Z 27009KT 9999 FEW023CB SCT025 SCT00 32/24 Q1006 NOSIG RMK A297 CB NE SW
RPLL 260500Z 28009KT 260V320 9999 FEW023CB SCT025 SCT100 32/26 Q1007 RMK A2974 CB S-SW NW
RPLL 260400Z VRB04KT 9999 FEW023CB SCT025 SCT100 32/25 Q1008 NOSIG RMK A2977 CB SW NW
RPLL 260300Z 10006KT 060V210 9999 FEW023CB SCT025 SCT100 34/25 Q1009 NOSIG RMK A2980 CB SW
RPLL 260200Z VRB05KT 9999 SCT025 33/25 Q1010 NOSIG RMK A2983
RPLL 260100Z VRB05KT 9999 FEW025 BKN300 31/25 Q1010 NOSIG RMK A2983
RPLL 260000Z 12005KT 050V180 9999 FEW027 SCT100 31/25 Q1010 NOSIG RMK A2983
RPLL 252300Z VRB02KT 9999 FEW025 BKN300 28/26 Q1009 NOSIG RMK A2980
RPLL 252200Z VRB02KT 9999 FEW025 BKN300 27/26 Q1008 NOSIG RMK A2977